createdAt,value
2018-11-04T00:02:53.402Z,2
2018-11-04T00:08:48.426Z,1.99
2018-11-04T00:14:43.399Z,2.14
2018-11-04T00:20:38.428Z,1.89
2018-11-04T00:26:33.418Z,2.27
2018-11-04T00:32:28.392Z,2.36
2018-11-04T00:38:23.390Z,1.96
2018-11-04T00:44:18.455Z,2.16
2018-11-04T00:50:13.509Z,1.97
2018-11-04T00:56:08.442Z,2.67
2018-11-04T01:02:03.447Z,2.22
2018-11-04T01:07:58.443Z,2.04
2018-11-04T01:13:53.503Z,1.96
2018-11-04T01:19:48.474Z,2
2018-11-04T01:25:43.413Z,1.98
2018-11-04T01:31:38.430Z,1.86
2018-11-04T01:37:33.417Z,1.9
2018-11-04T01:43:28.446Z,2.26
2018-11-04T01:49:23.478Z,2.34
2018-11-04T01:55:18.461Z,2.32
2018-11-04T02:01:13.431Z,2.11
2018-11-04T02:07:08.471Z,2.38
2018-11-04T02:13:03.443Z,2.19
2018-11-04T02:18:58.455Z,2.27
2018-11-04T02:24:53.488Z,2.23
2018-11-04T02:30:48.462Z,2.39
2018-11-04T02:36:43.467Z,2.31
2018-11-04T02:42:38.477Z,2.07
2018-11-04T02:48:33.492Z,2.27
2018-11-04T02:54:28.480Z,2.16
2018-11-04T03:00:23.488Z,2.68
2018-11-04T03:06:18.468Z,2.56
2018-11-04T03:12:13.482Z,1.9
2018-11-04T03:18:08.488Z,2.15
2018-11-04T03:24:03.478Z,2.43
2018-11-04T03:29:58.485Z,2.35
2018-11-04T03:35:53.495Z,2.2
2018-11-04T03:41:48.515Z,2.55
2018-11-04T03:47:43.490Z,2.36
2018-11-04T03:53:38.511Z,2.43
2018-11-04T03:59:33.546Z,2.43
2018-11-04T04:05:28.543Z,2.25
2018-11-04T04:11:23.507Z,2.26
2018-11-04T04:17:18.541Z,2.31
2018-11-04T04:23:13.558Z,2.38
2018-11-04T04:29:08.576Z,2.19
2018-11-04T04:35:03.556Z,2.08
2018-11-04T04:40:58.559Z,2.36
2018-11-04T04:46:53.571Z,1.95
2018-11-04T04:52:48.549Z,2.29
2018-11-04T04:58:43.529Z,2.21
2018-11-04T05:04:38.533Z,2.39
2018-11-04T05:10:33.555Z,2.14
2018-11-04T05:16:28.553Z,2.4
2018-11-04T05:22:23.553Z,2.49
2018-11-04T05:28:18.565Z,2.23
2018-11-04T05:34:13.569Z,2.12
2018-11-04T05:40:08.575Z,2.3
2018-11-04T05:46:03.586Z,2.36
2018-11-04T05:51:58.575Z,2.66
2018-11-04T05:57:53.598Z,2.42
2018-11-04T06:03:48.585Z,2.77
2018-11-04T06:09:43.629Z,2.63
2018-11-04T06:15:38.609Z,2.3
2018-11-04T06:21:33.616Z,2.45
2018-11-04T06:27:28.607Z,2.87
2018-11-04T06:33:23.591Z,2.62
2018-11-04T06:39:18.587Z,2.81
2018-11-04T06:45:13.657Z,2.73
2018-11-04T06:51:08.625Z,2.31
2018-11-04T06:57:03.607Z,2.44
2018-11-04T07:02:58.607Z,2.7
2018-11-04T07:08:53.687Z,2.47
2018-11-04T07:14:48.627Z,2.65
2018-11-04T07:20:43.632Z,2.6
2018-11-04T07:26:38.612Z,2.62
2018-11-04T07:32:33.633Z,2.49
2018-11-04T07:38:28.643Z,2.32
2018-11-04T07:44:23.797Z,2.29
2018-11-04T07:50:18.643Z,2.38
2018-11-04T07:56:13.624Z,3.08
2018-11-04T08:02:08.665Z,2.44
2018-11-04T08:08:03.641Z,2.62
2018-11-04T08:13:58.652Z,3.15
2018-11-04T08:19:53.658Z,2.45
2018-11-04T08:25:48.680Z,1.84
2018-11-04T08:31:43.708Z,2.8
2018-11-04T08:37:38.655Z,2.55
2018-11-04T08:43:33.679Z,2.43
2018-11-04T08:49:28.679Z,2.39
2018-11-04T08:55:23.667Z,2.79
2018-11-04T09:01:18.682Z,3.86
2018-11-04T09:07:13.676Z,3.66
2018-11-04T09:13:08.743Z,3.52
2018-11-04T09:19:03.722Z,3.18
2018-11-04T09:24:58.694Z,3.66
2018-11-04T09:30:53.739Z,3.18
2018-11-04T09:36:48.704Z,10.33
2018-11-04T09:42:43.709Z,5.17
2018-11-04T09:48:38.712Z,4.91
2018-11-04T09:54:33.737Z,5.37
2018-11-04T10:00:28.702Z,5.28
2018-11-04T10:06:23.708Z,3.11
2018-11-04T10:12:18.715Z,2.77
2018-11-04T10:18:13.790Z,3.82
2018-11-04T10:24:08.764Z,5.37
2018-11-04T10:30:03.780Z,9.58
2018-11-04T10:35:58.707Z,5.13
2018-11-04T10:41:53.736Z,4.66
2018-11-04T10:47:48.748Z,4.86
2018-11-04T10:53:43.754Z,22.16
2018-11-04T10:59:38.738Z,11.07
2018-11-04T11:05:33.758Z,4.7
2018-11-04T11:11:28.737Z,6.25
2018-11-04T11:17:23.747Z,7.69
2018-11-04T11:23:18.929Z,21.99
2018-11-04T11:29:13.755Z,20.47
2018-11-04T11:35:08.778Z,20.25
2018-11-04T11:41:03.770Z,8.22
2018-11-04T11:46:58.774Z,5.2
2018-11-04T11:52:53.760Z,5.54
2018-11-04T11:58:48.776Z,12.9
2018-11-04T12:04:43.761Z,5.25
2018-11-04T12:10:38.784Z,8.03
2018-11-04T12:16:33.783Z,6.79
2018-11-04T12:22:28.787Z,5.9
2018-11-04T12:28:23.798Z,6.38
2018-11-04T12:34:18.800Z,5.26
2018-11-04T12:40:13.833Z,4.41
2018-11-04T12:46:08.799Z,6.13
2018-11-04T12:52:03.861Z,3.66
2018-11-04T12:57:58.811Z,3.52
2018-11-04T13:03:53.799Z,4.45
2018-11-04T13:09:48.817Z,6.11
2018-11-04T13:15:43.804Z,3.62
2018-11-04T13:21:38.828Z,4.2
2018-11-04T13:27:33.858Z,4.7
2018-11-04T13:33:28.821Z,4.9
2018-11-04T13:39:23.854Z,7.26
2018-11-04T13:45:18.825Z,5.81
2018-11-04T13:51:13.836Z,4.83
2018-11-04T13:57:08.861Z,6.29
2018-11-04T14:03:03.971Z,5.17
2018-11-04T14:08:58.863Z,3.55
2018-11-04T14:14:53.880Z,5.19
2018-11-04T14:20:48.841Z,7.57
2018-11-04T14:26:43.873Z,5.8
2018-11-04T14:32:38.891Z,8.4
2018-11-04T14:38:33.855Z,5.9
2018-11-04T14:44:28.854Z,5.68
2018-11-04T14:50:23.866Z,5.94
2018-11-04T14:56:18.891Z,8.35
2018-11-04T15:02:13.870Z,3.74
2018-11-04T15:08:08.869Z,6.94
2018-11-04T15:14:03.887Z,6.33
2018-11-04T15:19:58.895Z,6.76
2018-11-04T15:25:53.894Z,6.68
2018-11-04T15:31:48.897Z,6.75
2018-11-04T15:37:43.878Z,4.47
2018-11-04T15:43:38.897Z,5.45
2018-11-04T15:49:33.895Z,6.36
2018-11-04T15:55:28.903Z,6.1
2018-11-04T16:01:23.921Z,5.93
2018-11-04T16:07:18.893Z,8.18
2018-11-04T16:13:13.910Z,6.29
2018-11-04T16:19:08.995Z,6.33
2018-11-04T16:25:03.925Z,5.16
2018-11-04T16:30:58.900Z,6.79
2018-11-04T16:36:53.920Z,7.32
2018-11-04T16:42:48.928Z,6.82
2018-11-04T16:48:43.918Z,6.43
2018-11-04T16:54:38.958Z,8.04
2018-11-04T17:00:33.937Z,7.27
2018-11-04T17:06:29.090Z,6.73
2018-11-04T17:12:23.930Z,5.31
2018-11-04T17:18:19.117Z,5.57
2018-11-04T17:24:13.974Z,13.2
2018-11-04T17:30:08.966Z,8.44
2018-11-04T17:36:04.034Z,6.37
2018-11-04T17:41:58.959Z,4.84
2018-11-04T17:47:53.968Z,18.92
2018-11-04T17:53:48.986Z,26.47
2018-11-04T17:59:43.987Z,24.47
2018-11-04T18:05:38.958Z,11.35
2018-11-04T18:11:34.006Z,10.28
2018-11-04T18:17:28.982Z,17.17
2018-11-04T18:23:24.006Z,71
2018-11-04T18:29:19.001Z,29.26
2018-11-04T18:35:13.989Z,8.88
2018-11-04T18:41:09.007Z,20.62
2018-11-04T18:47:04.004Z,8.97
2018-11-04T18:52:59.018Z,6.07
2018-11-04T18:58:54.063Z,5.57
2018-11-04T19:04:49.008Z,7.32
2018-11-04T19:10:44.045Z,5.17
2018-11-04T19:16:39.023Z,18.68
2018-11-04T19:22:34.044Z,10.9
2018-11-04T19:28:29.056Z,10.7
2018-11-04T19:34:24.036Z,11.24
2018-11-04T19:40:19.055Z,11.86
2018-11-04T19:46:14.070Z,14.83
2018-11-04T19:52:09.036Z,7.73
2018-11-04T19:58:04.037Z,11.63
2018-11-04T20:03:59.036Z,8.82
2018-11-04T20:09:54.053Z,15.33
2018-11-04T20:15:49.070Z,10.12
2018-11-04T20:21:44.081Z,6.67
2018-11-04T20:27:39.076Z,6.03
2018-11-04T20:33:34.077Z,6.27
2018-11-04T20:39:29.096Z,3.63
2018-11-04T20:45:24.074Z,3.87
2018-11-04T20:51:19.096Z,3.16
2018-11-04T20:57:14.092Z,2.76
2018-11-04T21:03:09.066Z,2.33
2018-11-04T21:09:04.071Z,3.04
2018-11-04T21:14:59.109Z,2.13
2018-11-04T21:20:54.108Z,2.07
2018-11-04T21:26:49.100Z,2.21
2018-11-04T21:32:44.067Z,1.47
2018-11-04T21:38:39.123Z,1.85
2018-11-04T21:44:34.171Z,1.36
2018-11-04T21:50:29.121Z,1.27
2018-11-04T21:56:24.305Z,0.88
2018-11-04T22:02:19.256Z,0.61
2018-11-04T22:08:14.150Z,0.45
2018-11-04T22:14:09.185Z,0.43
2018-11-04T22:20:04.126Z,0.44
2018-11-04T22:25:59.099Z,0.44
2018-11-04T22:31:54.109Z,0.56
2018-11-04T22:37:49.130Z,0.55
2018-11-04T22:43:44.125Z,0.63
2018-11-04T22:49:39.125Z,0.6
2018-11-04T22:55:34.138Z,0.44
2018-11-04T23:01:29.250Z,0.39
2018-11-04T23:07:24.123Z,0.49
2018-11-04T23:13:19.145Z,0.58
2018-11-04T23:19:14.147Z,0.93
2018-11-04T23:25:09.153Z,0.85
2018-11-04T23:31:04.139Z,0.64
2018-11-04T23:36:59.171Z,0.89
2018-11-04T23:42:54.141Z,0.69
2018-11-04T23:48:49.210Z,0.64
2018-11-04T23:54:44.214Z,0.63
